Time;durP1;ratioP1;P1;durP2;ratioP2;P2;SDS_P1;SDS_P2;PMS_P1;PMS_P2;Temp;Humidity;BMP_temperature;BMP_pressure;BME280_temperature;BME280_humidity;BME280_pressure;Samples;Min_cycle;Max_cycle;Signal;HPM_P1;HPM_P2
2023/04/12 00:02:22;;;;;;;5.60;5.20;;;9.70;99.90;;;;;;4909931;29;20663;-76
2023/04/12 00:04:54;;;;;;;5.90;5.30;;;9.70;99.90;;;;;;4907834;29;20270;-76
2023/04/12 00:07:21;;;;;;;5.87;5.20;;;9.70;99.90;;;;;;4914891;29;20212;-76
2023/04/12 00:09:48;;;;;;;5.97;5.47;;;9.70;99.90;;;;;;4913132;29;20201;-76
2023/04/12 00:12:16;;;;;;;5.70;5.20;;;9.70;99.90;;;;;;4910715;29;20223;-76
2023/04/12 00:14:45;;;;;;;6.17;5.60;;;9.70;99.90;;;;;;4917638;29;20670;-76
2023/04/12 00:17:11;;;;;;;6.50;5.20;;;9.60;99.90;;;;;;4912252;29;20232;-76
2023/04/12 00:19:40;;;;;;;6.20;5.30;;;9.60;99.90;;;;;;4912732;29;20325;-76
2023/04/12 00:22:08;;;;;;;5.70;5.20;;;9.60;99.90;;;;;;4911942;29;20204;-76
2023/04/12 00:24:34;;;;;;;5.23;4.80;;;9.50;99.90;;;;;;4911715;29;20728;-76
2023/04/12 00:27:01;;;;;;;4.90;4.47;;;9.40;99.90;;;;;;4913995;29;20217;-77
2023/04/12 00:29:28;;;;;;;5.17;4.23;;;9.40;99.90;;;;;;4911762;29;20225;-76
2023/04/12 00:31:56;;;;;;;5.90;5.50;;;9.40;99.90;;;;;;4916290;29;20212;-76
2023/04/12 00:34:23;;;;;;;2.13;1.77;;;9.30;99.90;;;;;;4913631;29;20228;-76
2023/04/12 00:36:50;;;;;;;4.93;2.40;;;9.30;99.90;;;;;;4912233;29;20717;-76
2023/04/12 00:39:17;;;;;;;4.20;2.27;;;9.20;99.90;;;;;;4910673;29;20238;-76
2023/04/12 00:41:44;;;;;;;4.63;2.40;;;9.10;99.90;;;;;;4909562;29;20212;-76
2023/04/12 00:44:10;;;;;;;3.47;2.77;;;9.10;99.90;;;;;;4916767;29;20196;-76
2023/04/12 00:46:37;;;;;;;5.53;2.67;;;9.00;99.90;;;;;;4912599;29;20204;-76
2023/04/12 00:49:06;;;;;;;5.23;3.53;;;9.00;99.90;;;;;;4914912;29;20230;-76
2023/04/12 00:51:33;;;;;;;5.50;3.60;;;8.90;99.90;;;;;;4915505;29;20203;-76
2023/04/12 00:54:01;;;;;;;6.40;3.93;;;8.90;99.90;;;;;;4911542;29;20207;-76
2023/04/12 00:56:28;;;;;;;4.07;2.73;;;8.80;99.90;;;;;;4910243;29;20714;-76
2023/04/12 00:58:56;;;;;;;3.73;3.10;;;8.80;99.90;;;;;;4911015;29;20215;-76
2023/04/12 01:01:23;;;;;;;5.13;3.33;;;8.80;99.90;;;;;;4912715;29;20200;-76
2023/04/12 01:03:51;;;;;;;6.23;3.50;;;8.70;99.90;;;;;;4913275;29;20196;-76
2023/04/12 01:06:28;;;;;;;6.20;3.60;;;8.70;99.90;;;;;;4911657;29;20196;-76
2023/04/12 01:09:03;;;;;;;6.53;5.60;;;8.70;99.90;;;;;;4915627;29;20322;-76
2023/04/12 01:11:41;;;;;;;6.87;5.50;;;8.70;99.90;;;;;;4910034;29;20658;-76
2023/04/12 01:14:16;;;;;;;4.97;3.80;;;8.70;99.90;;;;;;4912703;29;20200;-76
2023/04/12 01:16:49;;;;;;;5.23;4.83;;;8.70;99.90;;;;;;4911105;29;20223;-76
2023/04/12 01:19:33;;;;;;;10.30;6.30;;;8.70;99.90;;;;;;4911147;29;20200;-76
2023/04/12 01:22:17;;;;;;;6.93;6.40;;;8.70;99.90;;;;;;4909094;29;20208;-76
2023/04/12 01:24:56;;;;;;;7.27;6.57;;;8.70;99.90;;;;;;4910759;29;20284;-76
2023/04/12 01:27:38;;;;;;;8.17;6.53;;;8.70;99.90;;;;;;4909383;29;20275;-76
2023/04/12 01:30:08;;;;;;;6.97;6.27;;;8.70;99.90;;;;;;4908788;29;20200;-76
2023/04/12 01:32:36;;;;;;;6.37;5.93;;;8.60;99.90;;;;;;4908744;29;20217;-76
2023/04/12 01:35:06;;;;;;;7.10;6.50;;;8.60;99.90;;;;;;4914720;29;20200;-76
2023/04/12 01:37:33;;;;;;;7.00;6.30;;;8.60;99.90;;;;;;4912167;29;20718;-76
2023/04/12 01:40:01;;;;;;;7.33;6.73;;;8.60;99.90;;;;;;4911471;29;20204;-76
2023/04/12 01:42:29;;;;;;;6.80;6.20;;;8.60;99.90;;;;;;4907613;29;20196;-76
2023/04/12 01:44:56;;;;;;;6.40;5.83;;;8.60;99.90;;;;;;4913629;29;20667;-76
2023/04/12 01:47:23;;;;;;;7.07;6.50;;;8.50;99.90;;;;;;4909488;29;20238;-76
2023/04/12 01:49:59;;;;;;;6.87;6.27;;;8.60;99.90;;;;;;4910793;29;20202;-77
2023/04/12 01:52:30;;;;;;;6.70;6.20;;;8.50;99.90;;;;;;4911720;29;20346;-76
2023/04/12 01:55:02;;;;;;;8.20;6.80;;;8.50;99.90;;;;;;4914242;29;20708;-76
2023/04/12 01:57:30;;;;;;;7.07;6.53;;;8.60;99.90;;;;;;4913982;29;20224;-76
2023/04/12 01:59:59;;;;;;;7.60;6.90;;;8.60;99.90;;;;;;4914958;29;20251;-76
2023/04/12 02:02:26;;;;;;;7.17;6.47;;;8.50;99.90;;;;;;4912553;29;20334;-76
2023/04/12 02:04:54;;;;;;;7.43;6.63;;;8.50;99.90;;;;;;4910116;29;20644;-76
2023/04/12 02:07:21;;;;;;;7.43;6.83;;;8.50;99.90;;;;;;4908476;29;20272;-76
2023/04/12 02:09:48;;;;;;;7.80;7.10;;;8.50;99.90;;;;;;4908248;29;20306;-76
2023/04/12 02:12:19;;;;;;;7.57;6.87;;;8.50;99.90;;;;;;4911619;29;20200;-76
2023/04/12 02:14:51;;;;;;;7.63;6.93;;;8.50;99.90;;;;;;4912271;29;20714;-76
2023/04/12 02:17:18;;;;;;;7.37;6.63;;;8.50;99.90;;;;;;4910133;29;20695;-76
2023/04/12 02:19:46;;;;;;;7.70;7.00;;;8.50;99.90;;;;;;4912456;29;20291;-76
2023/04/12 02:22:14;;;;;;;6.90;6.40;;;8.50;99.90;;;;;;4910722;29;20709;-76
2023/04/12 02:24:41;;;;;;;6.77;6.27;;;8.50;99.90;;;;;;4907332;29;20667;-76
2023/04/12 02:27:08;;;;;;;7.30;6.67;;;8.50;99.90;;;;;;4912170;29;20219;-76
2023/04/12 02:29:37;;;;;;;7.70;7.10;;;8.50;99.90;;;;;;4910154;29;20204;-76
2023/04/12 02:32:06;;;;;;;8.43;7.00;;;8.40;99.90;;;;;;4908612;29;20199;-76
2023/04/12 02:34:35;;;;;;;7.10;6.60;;;8.40;99.90;;;;;;4908251;29;20251;-76
2023/04/12 02:37:16;;;;;;;7.63;7.03;;;8.40;99.90;;;;;;4909389;29;20221;-76
2023/04/12 02:39:43;;;;;;;6.70;6.30;;;8.40;99.90;;;;;;4911615;29;20207;-76
2023/04/12 02:42:11;;;;;;;6.77;6.37;;;8.40;99.90;;;;;;4910217;29;20204;-77
2023/04/12 02:44:40;;;;;;;7.60;6.90;;;8.40;99.90;;;;;;4910250;29;20198;-77
2023/04/12 02:47:13;;;;;;;7.23;6.70;;;8.40;99.90;;;;;;4907968;29;20621;-76
2023/04/12 02:49:42;;;;;;;7.90;7.30;;;8.40;99.90;;;;;;4911797;29;20203;-76
2023/04/12 02:52:11;;;;;;;7.60;7.10;;;8.40;99.90;;;;;;4908209;29;20204;-79
2023/04/12 02:54:49;;;;;;;7.93;7.30;;;8.30;99.90;;;;;;4926518;29;20740;-81
2023/04/12 02:57:17;;;;;;;7.70;7.00;;;8.30;99.90;;;;;;4918561;29;20255;-82
2023/04/12 02:59:46;;;;;;;7.50;7.00;;;8.30;99.90;;;;;;4906676;29;20215;-81
2023/04/12 03:02:23;;;;;;;7.57;7.07;;;8.30;99.90;;;;;;4911632;29;20254;-81
2023/04/12 03:04:53;;;;;;;7.27;6.77;;;8.30;99.90;;;;;;4913742;29;20688;-82
2023/04/12 03:07:26;;;;;;;7.80;7.20;;;8.30;99.90;;;;;;4912917;29;20272;-82
2023/04/12 03:09:54;;;;;;;7.60;7.00;;;8.30;99.90;;;;;;4912718;29;20252;-81
2023/04/12 03:12:23;;;;;;;7.13;6.63;;;8.30;99.90;;;;;;4918071;29;20298;-79
2023/04/12 03:15:01;;;;;;;7.50;7.00;;;8.20;99.90;;;;;;4916345;29;20227;-79
2023/04/12 03:17:30;;;;;;;7.47;6.80;;;8.20;99.90;;;;;;4920344;29;20234;-82
2023/04/12 03:19:57;;;;;;;7.37;6.80;;;8.20;99.90;;;;;;4902528;29;20226;-80
2023/04/12 03:22:27;;;;;;;7.27;6.77;;;8.20;99.90;;;;;;4914802;29;20200;-80
2023/04/12 03:24:58;;;;;;;8.53;7.83;;;8.20;99.90;;;;;;4906042;29;20231;-80
2023/04/12 03:27:25;;;;;;;8.20;7.50;;;8.20;99.90;;;;;;4918708;29;20263;-80
2023/04/12 03:29:53;;;;;;;7.80;7.30;;;8.20;99.90;;;;;;4912267;29;20286;-80
2023/04/12 03:32:23;;;;;;;7.70;7.20;;;8.20;99.90;;;;;;4907741;29;20208;-82
2023/04/12 03:34:51;;;;;;;7.50;6.90;;;8.20;99.90;;;;;;4913713;29;20298;-77
2023/04/12 03:37:24;;;;;;;7.67;7.13;;;8.20;99.90;;;;;;4911046;29;20314;-76
2023/04/12 03:39:53;;;;;;;7.53;6.83;;;8.20;99.90;;;;;;4909114;29;20196;-76
2023/04/12 03:42:23;;;;;;;7.60;7.10;;;8.10;99.90;;;;;;4906827;29;20675;-77
2023/04/12 03:44:51;;;;;;;7.70;7.20;;;8.20;99.90;;;;;;4913609;29;20573;-76
2023/04/12 03:47:21;;;;;;;7.33;6.83;;;8.20;99.90;;;;;;4918205;29;20292;-76
2023/04/12 03:49:53;;;;;;;7.70;7.10;;;8.10;99.90;;;;;;4913302;29;20204;-77
2023/04/12 03:52:21;;;;;;;7.57;7.07;;;8.10;99.90;;;;;;4914056;29;20215;-77
2023/04/12 03:54:48;;;;;;;7.03;6.53;;;8.10;99.90;;;;;;4916813;29;20220;-76
2023/04/12 03:57:24;;;;;;;7.10;6.70;;;8.20;99.90;;;;;;4914686;29;20318;-76
2023/04/12 03:59:51;;;;;;;7.83;7.23;;;8.20;99.90;;;;;;4911199;29;20601;-76
2023/04/12 04:02:23;;;;;;;8.07;7.37;;;8.20;99.90;;;;;;4914826;29;20196;-77
2023/04/12 04:04:54;;;;;;;8.30;7.60;;;8.20;99.90;;;;;;4914141;29;20196;-77
2023/04/12 04:07:26;;;;;;;8.53;7.90;;;8.20;99.90;;;;;;4912868;29;20500;-76
2023/04/12 04:09:55;;;;;;;8.43;7.80;;;8.20;99.90;;;;;;4904145;29;20199;-76
2023/04/12 04:12:24;;;;;;;8.30;7.70;;;8.20;99.90;;;;;;4911880;29;20547;-76
2023/04/12 04:14:54;;;;;;;8.20;7.60;;;8.20;99.90;;;;;;4910759;29;20203;-76
2023/04/12 04:17:32;;;;;;;8.17;7.67;;;8.20;99.90;;;;;;4917420;29;20231;-76
2023/04/12 04:20:01;;;;;;;8.27;7.67;;;8.10;99.90;;;;;;4910270;29;20259;-76
2023/04/12 04:22:31;;;;;;;8.43;7.80;;;8.10;99.90;;;;;;4915149;29;20204;-76
2023/04/12 04:25:01;;;;;;;7.60;7.20;;;8.20;99.90;;;;;;4914059;29;20211;-78
2023/04/12 04:27:33;;;;;;;8.47;7.87;;;8.20;99.90;;;;;;4917109;29;20216;-76
2023/04/12 04:30:01;;;;;;;8.50;8.00;;;8.20;99.90;;;;;;4911361;29;20208;-76
2023/04/12 04:32:29;;;;;;;8.80;8.20;;;8.20;99.90;;;;;;4915314;29;20306;-76
2023/04/12 04:34:58;;;;;;;8.70;8.17;;;8.20;99.90;;;;;;4914060;29;20215;-77
2023/04/12 04:37:32;;;;;;;8.90;8.30;;;8.20;99.90;;;;;;4910293;29;20228;-76
2023/04/12 04:40:00;;;;;;;8.93;8.33;;;8.20;99.90;;;;;;4916754;29;20203;-76
2023/04/12 04:42:28;;;;;;;9.37;8.77;;;8.20;99.90;;;;;;4914120;29;20207;-76
2023/04/12 04:45:11;;;;;;;9.40;8.70;;;8.20;99.90;;;;;;4913601;29;20255;-76
2023/04/12 04:47:38;;;;;;;9.50;8.80;;;8.20;99.90;;;;;;4911274;29;20798;-76
2023/04/12 04:50:07;;;;;;;9.97;9.20;;;8.20;99.90;;;;;;4911461;29;20203;-76
2023/04/12 04:52:36;;;;;;;9.80;9.10;;;8.20;99.90;;;;;;4909731;29;20199;-76
2023/04/12 04:55:09;;;;;;;9.53;9.00;;;8.20;99.90;;;;;;4913229;29;20299;-77
2023/04/12 04:57:37;;;;;;;9.83;9.13;;;8.20;99.90;;;;;;4912568;29;20252;-76
2023/04/12 05:00:10;;;;;;;9.50;8.90;;;8.20;99.90;;;;;;4914330;29;20260;-77
2023/04/12 05:02:38;;;;;;;9.50;8.80;;;8.20;99.90;;;;;;4914106;29;20673;-76
2023/04/12 05:05:07;;;;;;;9.13;8.50;;;8.20;99.90;;;;;;4910193;29;20247;-76
2023/04/12 05:07:35;;;;;;;8.77;8.17;;;8.20;99.90;;;;;;4914516;29;20220;-77
2023/04/12 05:10:02;;;;;;;8.77;8.17;;;8.20;99.90;;;;;;4913481;29;20642;-77
2023/04/12 05:12:31;;;;;;;9.20;8.50;;;8.20;99.90;;;;;;4915724;29;20206;-77
2023/04/12 05:14:58;;;;;;;8.60;8.10;;;8.20;99.90;;;;;;4911170;29;20215;-76
2023/04/12 05:17:25;;;;;;;9.10;8.50;;;8.20;99.90;;;;;;4911388;29;20224;-77
2023/04/12 05:19:52;;;;;;;9.47;8.87;;;8.30;99.90;;;;;;4913913;29;20204;-76
2023/04/12 05:22:20;;;;;;;9.07;8.47;;;8.30;99.90;;;;;;4910210;29;20200;-76
2023/04/12 05:24:49;;;;;;;8.80;8.20;;;8.30;99.90;;;;;;4915849;29;20219;-76
2023/04/12 05:27:16;;;;;;;9.03;8.43;;;8.30;99.90;;;;;;4912883;29;20223;-77
2023/04/12 05:29:46;;;;;;;9.07;8.57;;;8.30;99.90;;;;;;4911664;29;20206;-77
2023/04/12 05:32:13;;;;;;;9.43;8.87;;;8.30;99.90;;;;;;4910352;29;20263;-82
2023/04/12 05:34:41;;;;;;;9.00;8.30;;;8.30;99.90;;;;;;4914492;29;20204;-80
2023/04/12 05:37:08;;;;;;;9.43;8.87;;;8.40;99.90;;;;;;4911581;29;20223;-80
2023/04/12 05:39:38;;;;;;;9.57;8.87;;;8.40;99.90;;;;;;4917110;29;20207;-80
2023/04/12 05:42:10;;;;;;;9.40;8.70;;;8.40;99.90;;;;;;4911507;29;20702;-80
2023/04/12 05:44:38;;;;;;;9.83;9.17;;;8.50;99.90;;;;;;4910502;29;20204;-81
2023/04/12 05:47:08;;;;;;;9.57;8.63;;;8.50;99.90;;;;;;4909076;29;20272;-80
2023/04/12 05:49:35;;;;;;;8.93;8.33;;;8.40;99.90;;;;;;4912061;29;20197;-81
2023/04/12 05:52:06;;;;;;;9.10;8.47;;;8.50;99.90;;;;;;4913385;29;20203;-81
2023/04/12 05:54:33;;;;;;;8.67;8.17;;;8.50;99.90;;;;;;4906231;29;20201;-80
2023/04/12 05:57:01;;;;;;;8.60;8.10;;;8.60;99.90;;;;;;4915515;29;20255;-79
2023/04/12 05:59:29;;;;;;;8.50;8.00;;;8.60;99.90;;;;;;4906206;29;20782;-80
2023/04/12 06:01:56;;;;;;;2.60;2.40;;;8.60;99.90;;;;;;4913313;29;20283;-80
2023/04/12 06:04:24;;;;;;;2.80;2.60;;;8.70;99.90;;;;;;4910834;29;20204;-80
2023/04/12 06:06:51;;;;;;;2.37;2.13;;;8.80;99.90;;;;;;4911372;29;20215;-79
2023/04/12 06:09:18;;;;;;;3.67;2.50;;;8.80;99.90;;;;;;4908811;29;20219;-80
2023/04/12 06:11:45;;;;;;;2.23;2.13;;;8.80;99.90;;;;;;4910093;29;20214;-80
2023/04/12 06:14:12;;;;;;;2.77;2.40;;;8.90;99.90;;;;;;4912131;29;20200;-80
2023/04/12 06:16:40;;;;;;;2.90;2.70;;;8.90;99.90;;;;;;4908929;29;20591;-81
2023/04/12 06:19:07;;;;;;;3.97;2.50;;;8.90;99.90;;;;;;4911801;29;20220;-81
2023/04/12 06:21:34;;;;;;;2.20;2.10;;;9.00;99.90;;;;;;4910073;29;20197;-80
2023/04/12 06:24:01;;;;;;;2.50;2.30;;;9.00;99.90;;;;;;4912625;29;20199;-80
2023/04/12 06:26:30;;;;;;;2.17;2.07;;;9.00;99.90;;;;;;4916980;29;20299;-80
2023/04/12 06:28:56;;;;;;;2.20;2.10;;;8.90;99.90;;;;;;4908510;29;20250;-80
2023/04/12 06:31:24;;;;;;;2.00;1.90;;;8.90;99.90;;;;;;4912199;29;20279;-80
2023/04/12 06:33:53;;;;;;;2.57;2.30;;;9.00;99.90;;;;;;4907901;29;20214;-80
2023/04/12 06:36:20;;;;;;;2.30;2.20;;;9.00;99.90;;;;;;4908648;29;20199;-81
2023/04/12 06:38:47;;;;;;;2.20;2.10;;;9.00;99.90;;;;;;4911688;29;20243;-80
2023/04/12 06:41:14;;;;;;;3.30;2.33;;;9.00;99.90;;;;;;4917477;29;20196;-81
2023/04/12 06:43:40;;;;;;;2.33;2.20;;;9.10;99.90;;;;;;4919879;29;20223;-80
2023/04/12 06:46:07;;;;;;;2.23;2.03;;;9.10;99.90;;;;;;4913921;29;20284;-80
2023/04/12 06:48:34;;;;;;;2.20;2.10;;;9.10;99.90;;;;;;4912048;29;20211;-80
2023/04/12 06:51:02;;;;;;;2.30;2.10;;;9.20;99.90;;;;;;4916229;29;20204;-80
2023/04/12 06:53:30;;;;;;;2.70;2.30;;;9.20;99.90;;;;;;4912723;29;20275;-80
2023/04/12 06:55:57;;;;;;;2.13;2.00;;;9.30;99.90;;;;;;4911816;29;20200;-81
2023/04/12 06:58:24;;;;;;;2.20;2.10;;;9.30;99.90;;;;;;4911321;29;20222;-80
2023/04/12 07:00:51;;;;;;;6.40;6.00;;;9.40;99.90;;;;;;4909247;29;20205;-80
2023/04/12 07:03:17;;;;;;;8.90;8.20;;;9.40;99.90;;;;;;4911275;29;20201;-80
2023/04/12 07:05:46;;;;;;;8.40;7.90;;;9.40;99.90;;;;;;4918916;29;20203;-81
2023/04/12 07:08:14;;;;;;;8.57;8.07;;;9.50;99.90;;;;;;4911096;29;20223;-81
2023/04/12 07:10:41;;;;;;;8.43;7.83;;;9.50;99.90;;;;;;4916756;29;20208;-80
2023/04/12 07:13:07;;;;;;;8.20;7.60;;;9.60;99.90;;;;;;4910447;29;20200;-80
2023/04/12 07:15:34;;;;;;;8.77;8.17;;;9.60;99.90;;;;;;4909947;29;20215;-80
2023/04/12 07:18:01;;;;;;;8.13;7.63;;;9.60;99.90;;;;;;4909248;29;20220;-81
2023/04/12 07:20:28;;;;;;;8.00;7.50;;;9.70;99.90;;;;;;4909139;29;20295;-80
2023/04/12 07:22:54;;;;;;;8.50;7.80;;;9.80;99.90;;;;;;4911554;29;20237;-80
2023/04/12 07:25:23;;;;;;;8.23;7.63;;;9.80;99.90;;;;;;4908631;29;20207;-80
2023/04/12 07:27:49;;;;;;;8.47;7.87;;;9.90;99.90;;;;;;4912803;29;20269;-80
2023/04/12 07:30:16;;;;;;;8.07;7.57;;;9.90;99.90;;;;;;4910050;29;20200;-80
2023/04/12 07:32:43;;;;;;;8.27;7.67;;;10.00;99.90;;;;;;4917059;29;20215;-80
2023/04/12 07:35:10;;;;;;;6.93;6.53;;;10.10;99.90;;;;;;4914117;29;20197;-81
2023/04/12 07:37:37;;;;;;;6.40;5.80;;;10.20;99.90;;;;;;4909072;29;20288;-80
2023/04/12 07:40:06;;;;;;;4.90;4.60;;;10.20;99.90;;;;;;4920098;29;20256;-81
2023/04/12 07:42:38;;;;;;;5.33;4.93;;;10.40;99.90;;;;;;4916119;29;20200;-82
2023/04/12 07:45:06;;;;;;;5.43;5.00;;;10.40;99.90;;;;;;4909514;29;20265;-84
2023/04/12 07:47:33;;;;;;;5.50;5.20;;;10.40;99.90;;;;;;4905821;29;20895;-83
2023/04/12 07:50:00;;;;;;;5.40;5.00;;;10.40;99.90;;;;;;4910250;29;20206;-83
2023/04/12 07:52:27;;;;;;;3.90;3.70;;;10.40;99.90;;;;;;4914405;29;20201;-83
2023/04/12 07:54:54;;;;;;;4.90;4.60;;;10.60;99.90;;;;;;4912381;29;20203;-84
2023/04/12 07:57:25;;;;;;;5.20;4.90;;;10.80;99.90;;;;;;4910303;29;20226;-84
2023/04/12 07:59:55;;;;;;;5.40;5.10;;;11.00;99.90;;;;;;4907611;29;20261;-84
2023/04/12 08:02:24;;;;;;;5.70;5.30;;;11.10;99.90;;;;;;4910682;29;20203;-83
2023/04/12 08:04:51;;;;;;;3.53;2.00;;;11.20;99.90;;;;;;4907545;29;20211;-84
2023/04/12 08:07:18;;;;;;;3.00;2.80;;;11.20;99.90;;;;;;4906843;29;20282;-83
2023/04/12 08:09:46;;;;;;;2.50;2.30;;;11.30;99.90;;;;;;4909531;29;20213;-80
2023/04/12 08:12:14;;;;;;;2.30;2.20;;;11.40;99.90;;;;;;4907374;29;20676;-81
2023/04/12 08:14:41;;;;;;;2.30;2.10;;;11.60;99.90;;;;;;4912329;29;20220;-80
2023/04/12 08:17:10;;;;;;;2.40;2.20;;;11.70;99.90;;;;;;4908201;29;20294;-79
2023/04/12 08:19:37;;;;;;;2.40;2.20;;;11.70;99.90;;;;;;4912327;29;20216;-80
2023/04/12 08:22:03;;;;;;;2.30;2.10;;;11.90;99.90;;;;;;4909941;29;20230;-80
2023/04/12 08:24:30;;;;;;;4.17;2.17;;;11.90;99.90;;;;;;4905429;29;20667;-79
2023/04/12 08:26:57;;;;;;;2.37;2.17;;;11.90;99.90;;;;;;4909589;29;20205;-79
2023/04/12 08:29:24;;;;;;;2.70;2.40;;;12.00;99.90;;;;;;4906994;29;20192;-79
2023/04/12 08:31:51;;;;;;;2.30;2.10;;;12.20;99.90;;;;;;4912588;29;20220;-80
2023/04/12 08:34:21;;;;;;;4.03;2.53;;;12.40;99.90;;;;;;4912408;29;20211;-79
2023/04/12 08:36:48;;;;;;;2.50;2.30;;;12.50;99.90;;;;;;4901639;29;20204;-80
2023/04/12 08:39:15;;;;;;;2.80;2.60;;;12.80;99.90;;;;;;4915817;29;20226;-80
2023/04/12 08:41:43;;;;;;;3.13;2.60;;;13.00;99.90;;;;;;4907488;29;20219;-79
2023/04/12 08:44:11;;;;;;;2.70;2.50;;;13.00;99.90;;;;;;4909521;29;20204;-79
2023/04/12 08:46:38;;;;;;;2.60;2.40;;;12.80;99.90;;;;;;4908426;29;20636;-80
2023/04/12 08:49:05;;;;;;;3.23;2.90;;;12.80;99.90;;;;;;4917367;29;20281;-80
2023/04/12 08:51:35;;;;;;;2.50;2.00;;;12.90;99.90;;;;;;4914929;29;20209;-78
2023/04/12 08:54:01;;;;;;;2.20;2.10;;;12.90;99.90;;;;;;4916520;29;20211;-80
2023/04/12 08:56:29;;;;;;;2.53;2.07;;;12.80;99.90;;;;;;4912596;29;20198;-78
2023/04/12 08:58:56;;;;;;;2.30;2.10;;;12.90;99.90;;;;;;4908956;29;20308;-80
2023/04/12 09:01:23;;;;;;;2.20;2.10;;;13.00;99.90;;;;;;4913218;29;20209;-80
2023/04/12 09:03:50;;;;;;;1.97;1.87;;;13.00;99.90;;;;;;4907674;29;20307;-79
2023/04/12 09:06:17;;;;;;;3.33;2.37;;;13.00;99.90;;;;;;4915485;29;20200;-80
2023/04/12 09:08:56;;;;;;;2.30;2.10;;;13.00;99.90;;;;;;4907467;29;20277;-79
2023/04/12 09:11:24;;;;;;;2.43;2.20;;;13.00;99.90;;;;;;4910572;29;20679;-79
2023/04/12 09:13:51;;;;;;;2.70;2.30;;;13.10;99.90;;;;;;4909385;29;20560;-80
2023/04/12 09:16:33;;;;;;;4.87;2.13;;;13.10;99.90;;;;;;4908736;29;20617;-79
2023/04/12 09:19:01;;;;;;;2.63;2.20;;;13.20;99.90;;;;;;4911336;29;20285;-79
2023/04/12 09:21:28;;;;;;;2.40;2.20;;;13.30;99.90;;;;;;4910957;29;20292;-80
2023/04/12 09:24:08;;;;;;;2.77;2.27;;;13.30;99.90;;;;;;4908723;29;20573;-79
2023/04/12 09:26:35;;;;;;;2.70;2.50;;;13.50;99.90;;;;;;4912803;29;20202;-80
2023/04/12 09:29:02;;;;;;;2.23;2.03;;;13.70;99.90;;;;;;4909059;29;20307;-79
2023/04/12 09:31:28;;;;;;;2.27;2.10;;;13.80;99.90;;;;;;4910197;29;20212;-81
2023/04/12 09:34:06;;;;;;;2.50;2.30;;;14.00;99.90;;;;;;4914909;29;20202;-80
2023/04/12 09:36:38;;;;;;;3.70;2.70;;;14.20;99.90;;;;;;4913885;29;20701;-81
2023/04/12 09:39:07;;;;;;;3.23;2.70;;;14.30;99.90;;;;;;4916827;29;20730;-81
2023/04/12 09:41:35;;;;;;;3.40;3.10;;;14.30;99.90;;;;;;4909152;29;20255;-80
2023/04/12 09:44:03;;;;;;;2.60;2.40;;;14.40;99.90;;;;;;4914494;29;20210;-80
2023/04/12 09:46:30;;;;;;;4.67;2.57;;;14.60;99.90;;;;;;4910523;29;20228;-79
2023/04/12 09:48:58;;;;;;;2.83;2.63;;;14.90;99.90;;;;;;4913473;29;20271;-80
2023/04/12 09:51:30;;;;;;;4.23;2.60;;;15.10;99.90;;;;;;4910382;29;20210;-80
2023/04/12 09:54:01;;;;;;;3.50;2.50;;;15.20;99.90;;;;;;4917160;29;20196;-81
2023/04/12 09:56:31;;;;;;;2.27;2.03;;;15.40;99.90;;;;;;4917478;29;20203;-80
2023/04/12 09:59:02;;;;;;;2.73;2.10;;;15.40;99.90;;;;;;4913567;29;20271;-80
2023/04/12 10:01:33;;;;;;;3.30;2.33;;;15.40;99.90;;;;;;4909920;29;20215;-81
2023/04/12 10:04:00;;;;;;;3.07;2.23;;;15.40;99.90;;;;;;4914500;29;20259;-80
2023/04/12 10:06:29;;;;;;;3.30;2.13;;;15.40;99.90;;;;;;4908489;29;20299;-79
2023/04/12 10:08:56;;;;;;;5.70;2.40;;;15.50;99.90;;;;;;4913269;29;20226;-79
2023/04/12 10:11:24;;;;;;;3.40;2.60;;;15.60;99.90;;;;;;4914128;29;20196;-81
2023/04/12 10:13:52;;;;;;;3.03;2.20;;;15.70;99.90;;;;;;4908429;29;20299;-80
2023/04/12 10:16:21;;;;;;;2.30;2.10;;;15.70;99.90;;;;;;4917827;29;20215;-80
2023/04/12 10:18:48;;;;;;;2.23;2.10;;;15.80;99.90;;;;;;4909923;29;20252;-79
2023/04/12 10:21:16;;;;;;;2.97;2.43;;;16.10;99.90;;;;;;4902162;29;20267;-79
2023/04/12 10:23:44;;;;;;;2.93;2.37;;;16.40;99.90;;;;;;4906172;29;20207;-79
2023/04/12 10:26:11;;;;;;;2.40;2.20;;;16.50;99.90;;;;;;4911244;29;20196;-80
2023/04/12 10:28:39;;;;;;;3.20;2.70;;;16.60;99.90;;;;;;4909720;29;20228;-80
2023/04/12 10:31:29;;;;;;;2.60;2.40;;;16.70;99.90;;;;;;4913123;29;20288;-78
2023/04/12 10:33:56;;;;;;;2.73;2.50;;;16.60;99.90;;;;;;4912396;29;20284;-81
2023/04/12 10:36:51;;;;;;;3.90;2.10;;;16.50;99.90;;;;;;4907681;29;20253;-81
2023/04/12 10:39:18;;;;;;;4.97;2.60;;;16.20;99.90;;;;;;4909225;29;20209;-79
2023/04/12 10:42:17;;;;;;;2.87;2.50;;;16.00;99.90;;;;;;4907565;29;20235;-80
2023/04/12 10:44:45;;;;;;;6.50;4.33;;;15.80;99.90;;;;;;4904371;29;20212;-79
2023/04/12 10:47:13;;;;;;;4.60;3.20;;;15.80;99.90;;;;;;4913465;29;20729;-80
2023/04/12 10:49:40;;;;;;;2.70;2.40;;;15.90;99.90;;;;;;4911643;29;20667;-81
2023/04/12 10:52:17;;;;;;;2.63;2.43;;;16.10;99.90;;;;;;4909628;29;20270;-80
2023/04/12 10:54:44;;;;;;;2.60;2.40;;;16.20;99.90;;;;;;4912495;29;20211;-80
2023/04/12 10:57:41;;;;;;;3.47;2.70;;;16.50;99.90;;;;;;4914651;29;20658;-80
2023/04/12 11:00:08;;;;;;;3.00;2.60;;;16.80;99.90;;;;;;4910949;29;20218;-80
2023/04/12 11:03:10;;;;;;;3.70;2.70;;;16.90;99.90;;;;;;4908983;29;20261;-80
2023/04/12 11:06:00;;;;;;;2.87;2.40;;;16.90;99.90;;;;;;4908277;29;20228;-80
2023/04/12 11:08:57;;;;;;;2.40;2.20;;;16.80;99.90;;;;;;4878249;29;20320;-81
2023/04/12 11:11:26;;;;;;;2.47;2.10;;;16.80;99.90;;;;;;4912393;29;20649;-79
2023/04/12 11:13:55;;;;;;;2.07;1.87;;;17.00;99.90;;;;;;4911954;29;20260;-80
2023/04/12 11:16:22;;;;;;;3.40;2.10;;;17.10;99.90;;;;;;4908560;29;20209;-81
2023/04/12 11:18:50;;;;;;;2.70;1.90;;;17.20;99.90;;;;;;4909155;29;20228;-81
2023/04/12 11:21:19;;;;;;;2.00;1.90;;;17.30;99.90;;;;;;4907118;29;20276;-79
2023/04/12 11:23:46;;;;;;;2.77;1.80;;;17.30;99.90;;;;;;4910344;29;20232;-84
2023/04/12 11:26:19;;;;;;;1.90;1.80;;;17.10;99.90;;;;;;4912102;29;20587;-80
2023/04/12 11:28:47;;;;;;;2.00;1.90;;;17.20;99.90;;;;;;4911638;29;20722;-79
2023/04/12 11:31:13;;;;;;;1.80;1.70;;;17.20;99.90;;;;;;4914712;29;20194;-79
2023/04/12 11:33:41;;;;;;;2.87;2.00;;;17.20;99.90;;;;;;4907742;29;20221;-81
2023/04/12 11:36:12;;;;;;;5.63;2.10;;;17.30;99.90;;;;;;4912980;29;20215;-80
2023/04/12 11:38:39;;;;;;;2.33;2.13;;;17.40;99.90;;;;;;4906456;29;20739;-80
2023/04/12 11:41:08;;;;;;;2.13;1.93;;;17.50;99.90;;;;;;4908461;29;20226;-80
2023/04/12 11:43:37;;;;;;;1.90;1.80;;;17.30;99.90;;;;;;4908146;29;20201;-80
2023/04/12 11:46:04;;;;;;;2.83;1.90;;;17.40;99.90;;;;;;4909043;29;20205;-81
2023/04/12 11:48:32;;;;;;;2.17;1.87;;;17.60;99.90;;;;;;4910387;29;20283;-80
2023/04/12 11:50:59;;;;;;;1.90;1.80;;;17.60;99.90;;;;;;4908243;29;20204;-82
2023/04/12 11:53:29;;;;;;;2.60;1.90;;;17.70;99.90;;;;;;4915500;29;20583;-80
2023/04/12 11:55:57;;;;;;;2.10;1.90;;;17.60;99.90;;;;;;4913933;29;20263;-82
2023/04/12 11:58:27;;;;;;;2.40;2.00;;;17.60;99.90;;;;;;4909723;29;20226;-80
2023/04/12 12:00:55;;;;;;;2.05;1.92;;;17.70;99.90;;;;;;4908645;29;20474;-81
2023/04/12 12:03:23;;;;;;;2.17;1.70;;;17.70;99.90;;;;;;4908023;29;20217;-81
2023/04/12 12:05:50;;;;;;;2.70;2.10;;;17.70;99.90;;;;;;4909553;29;20444;-82
2023/04/12 12:08:18;;;;;;;1.88;1.77;;;17.70;99.90;;;;;;4912989;29;20445;-81
2023/04/12 12:10:47;;;;;;;3.17;2.93;;;17.70;99.90;;;;;;4915014;29;20280;-81
2023/04/12 12:13:14;;;;;;;2.70;2.50;;;17.70;99.90;;;;;;4916353;29;20215;-80
2023/04/12 12:15:44;;;;;;;2.80;2.60;;;17.70;99.90;;;;;;4914861;29;20267;-79
2023/04/12 12:18:11;;;;;;;2.60;2.40;;;17.80;99.90;;;;;;4909964;29;20292;-80
2023/04/12 12:20:42;;;;;;;2.47;2.30;;;17.70;99.90;;;;;;4912449;29;20220;-80
2023/04/12 12:23:09;;;;;;;2.67;2.47;;;18.00;99.90;;;;;;4916398;29;20214;-80
2023/04/12 12:25:36;;;;;;;2.50;2.40;;;18.00;99.90;;;;;;4913172;29;20209;-80
2023/04/12 12:28:05;;;;;;;2.00;1.90;;;18.10;99.90;;;;;;4914091;29;20228;-78
2023/04/12 12:30:39;;;;;;;1.90;1.80;;;17.80;99.90;;;;;;4916100;29;20275;-80
2023/04/12 12:33:06;;;;;;;2.27;2.10;;;17.90;99.90;;;;;;4916581;29;20297;-80
2023/04/12 12:35:35;;;;;;;2.07;1.90;;;18.00;99.90;;;;;;4923862;29;20214;-80
2023/04/12 12:38:07;;;;;;;2.10;2.00;;;18.10;99.90;;;;;;4908331;29;20595;-81
2023/04/12 12:40:34;;;;;;;1.80;1.70;;;18.20;99.90;;;;;;4910468;29;20219;-83
2023/04/12 12:43:01;;;;;;;2.67;2.00;;;18.40;99.90;;;;;;4909662;29;20211;-81
2023/04/12 12:45:32;;;;;;;2.37;1.70;;;18.50;99.90;;;;;;4909310;29;20565;-82
2023/04/12 12:48:01;;;;;;;1.80;1.70;;;18.40;99.90;;;;;;4911172;29;20251;-82
2023/04/12 12:50:29;;;;;;;1.90;1.80;;;18.40;99.90;;;;;;4905321;29;20200;-83
2023/04/12 12:52:57;;;;;;;1.90;1.80;;;18.20;99.90;;;;;;4906750;29;20211;-82
2023/04/12 12:55:24;;;;;;;1.70;1.60;;;18.10;99.90;;;;;;4909586;29;20211;-80
2023/04/12 12:57:53;;;;;;;2.97;1.80;;;18.00;99.90;;;;;;4914039;29;20251;-83
2023/04/12 13:00:22;;;;;;;5.00;2.00;;;18.10;99.90;;;;;;4916813;29;20220;-82
2023/04/12 13:02:50;;;;;;;2.10;1.70;;;18.00;99.90;;;;;;4916121;29;20254;-82
2023/04/12 13:05:17;;;;;;;1.80;1.70;;;18.00;99.90;;;;;;4913046;29;20205;-82